createdAt,value
2023-02-26T00:00:13.223Z,4.00
2023-02-26T00:02:41.602Z,4.00
2023-02-26T00:05:11.070Z,3.90
2023-02-26T00:07:40.093Z,3.90
2023-02-26T00:10:11.310Z,4.00
2023-02-26T00:12:40.606Z,4.00
2023-02-26T00:15:15.453Z,3.90
2023-02-26T00:17:50.296Z,3.90
2023-02-26T00:20:20.276Z,3.80
2023-02-26T00:22:49.268Z,3.90
2023-02-26T00:25:18.072Z,3.90
2023-02-26T00:28:12.918Z,3.90
2023-02-26T00:31:07.568Z,4.00
2023-02-26T00:33:36.902Z,3.80
2023-02-26T00:36:14.967Z,3.80
2023-02-26T00:38:51.534Z,3.80
2023-02-26T00:41:20.681Z,3.80
2023-02-26T00:43:49.694Z,3.70
2023-02-26T00:46:25.441Z,3.70
2023-02-26T00:49:03.417Z,3.70
2023-02-26T00:51:36.726Z,3.70
2023-02-26T00:54:11.357Z,3.70
2023-02-26T00:56:40.055Z,3.70
2023-02-26T00:59:08.404Z,3.70
2023-02-26T01:01:39.089Z,3.70
2023-02-26T01:04:08.208Z,3.70
2023-02-26T01:06:49.894Z,3.80
2023-02-26T01:09:26.013Z,3.90
2023-02-26T01:11:55.765Z,3.90
2023-02-26T01:14:24.944Z,4.00
2023-02-26T01:17:00.485Z,4.00
2023-02-26T01:19:35.925Z,4.10
2023-02-26T01:22:10.830Z,4.20
2023-02-26T01:24:39.101Z,4.20
2023-02-26T01:27:07.650Z,4.20
2023-02-26T01:29:36.435Z,4.20
2023-02-26T01:32:13.992Z,4.20
2023-02-26T01:34:47.958Z,4.20
2023-02-26T01:37:26.609Z,4.20
2023-02-26T01:40:22.645Z,4.20
2023-02-26T01:42:55.704Z,4.20
2023-02-26T01:45:32.797Z,4.20
2023-02-26T01:48:07.128Z,4.10
2023-02-26T01:50:37.620Z,4.10
2023-02-26T01:53:24.726Z,4.10
2023-02-26T01:55:57.821Z,4.00
2023-02-26T01:58:28.381Z,3.90
2023-02-26T02:00:56.439Z,3.90
2023-02-26T02:03:29.328Z,3.90
2023-02-26T02:06:01.946Z,4.00
2023-02-26T02:08:30.623Z,3.80
2023-02-26T02:10:58.951Z,3.80
2023-02-26T02:13:43.636Z,3.60
2023-02-26T02:16:22.126Z,3.70
2023-02-26T02:18:58.847Z,3.70
2023-02-26T02:21:43.266Z,3.60
2023-02-26T02:24:15.686Z,3.60
2023-02-26T02:27:04.528Z,3.70
2023-02-26T02:29:55.878Z,3.50
2023-02-26T02:32:30.127Z,3.50
2023-02-26T02:35:05.003Z,3.50
2023-02-26T02:37:38.940Z,3.50
2023-02-26T02:40:11.641Z,3.40
2023-02-26T02:42:44.989Z,3.40
2023-02-26T02:45:18.377Z,3.40
2023-02-26T02:47:54.220Z,3.30
2023-02-26T02:50:27.185Z,3.30
2023-02-26T02:52:59.928Z,3.30
2023-02-26T02:55:31.994Z,3.20
2023-02-26T02:58:04.598Z,3.20
2023-02-26T03:00:36.851Z,3.10
2023-02-26T03:03:14.994Z,3.10
2023-02-26T03:05:43.652Z,3.10
2023-02-26T03:08:14.417Z,3.20
2023-02-26T03:10:43.637Z,3.20
2023-02-26T03:13:18.580Z,3.10
2023-02-26T03:15:57.157Z,3.20
2023-02-26T03:18:38.110Z,3.10
2023-02-26T03:21:11.589Z,3.10
2023-02-26T03:23:45.083Z,3.00
2023-02-26T03:26:17.238Z,3.00
2023-02-26T03:28:52.225Z,2.90
2023-02-26T03:31:27.991Z,2.80
2023-02-26T03:34:01.749Z,2.80
2023-02-26T03:36:34.277Z,2.80
2023-02-26T03:39:06.926Z,2.80
2023-02-26T03:41:40.627Z,2.90
2023-02-26T03:44:14.714Z,2.70
2023-02-26T03:46:46.638Z,2.60
2023-02-26T03:49:19.974Z,2.70
2023-02-26T03:51:48.526Z,2.80
2023-02-26T03:54:21.278Z,2.80
2023-02-26T03:56:50.115Z,2.70
2023-02-26T03:59:19.215Z,2.70
2023-02-26T04:01:52.985Z,2.70
2023-02-26T04:04:29.036Z,2.70
2023-02-26T04:06:57.835Z,2.70
2023-02-26T04:09:26.495Z,2.90
2023-02-26T04:11:57.420Z,2.60
2023-02-26T04:14:27.621Z,2.50
2023-02-26T04:16:55.797Z,2.50
2023-02-26T04:19:25.493Z,2.40
2023-02-26T04:21:53.881Z,2.40
2023-02-26T04:24:22.132Z,2.40
2023-02-26T04:26:50.431Z,2.40
2023-02-26T04:29:18.764Z,2.40
2023-02-26T04:31:47.177Z,3.40
2023-02-26T04:34:15.361Z,2.30
2023-02-26T04:36:45.446Z,2.30
2023-02-26T04:39:13.634Z,2.30
2023-02-26T04:41:41.733Z,2.30
2023-02-26T04:44:10.049Z,2.30
2023-02-26T04:46:38.447Z,2.20
2023-02-26T04:49:07.116Z,2.20
2023-02-26T04:51:35.174Z,2.20
2023-02-26T04:54:05.870Z,2.20
2023-02-26T04:56:33.841Z,2.20
2023-02-26T04:59:02.790Z,2.20
2023-02-26T05:01:30.820Z,2.10
2023-02-26T05:03:59.351Z,2.10
2023-02-26T05:06:27.554Z,2.10
2023-02-26T05:08:56.034Z,2.10
2023-02-26T05:11:25.400Z,2.10
2023-02-26T05:13:54.120Z,2.20
2023-02-26T05:16:22.210Z,2.10
2023-02-26T05:18:50.394Z,2.10
2023-02-26T05:21:19.974Z,2.10
2023-02-26T05:23:48.063Z,2.00
2023-02-26T05:26:16.202Z,2.10
2023-02-26T05:28:46.254Z,2.00
2023-02-26T05:31:14.548Z,2.00
2023-02-26T05:33:43.232Z,2.00
2023-02-26T05:36:12.694Z,2.00
2023-02-26T05:38:40.895Z,2.00
2023-02-26T05:41:08.993Z,2.00
2023-02-26T05:43:37.260Z,2.30
2023-02-26T05:46:06.999Z,2.00
2023-02-26T05:48:35.161Z,2.00
2023-02-26T05:51:03.736Z,2.00
2023-02-26T05:53:31.708Z,2.10
2023-02-26T05:56:00.172Z,2.00
2023-02-26T05:58:28.338Z,2.00
2023-02-26T06:00:57.273Z,2.00
2023-02-26T06:03:27.211Z,2.20
2023-02-26T06:05:55.410Z,2.10
2023-02-26T06:08:28.025Z,2.00
2023-02-26T06:10:58.143Z,2.00
2023-02-26T06:13:26.450Z,1.90
2023-02-26T06:15:55.232Z,2.10
2023-02-26T06:18:23.927Z,1.90
2023-02-26T06:20:53.673Z,2.10
2023-02-26T06:23:22.083Z,2.00
2023-02-26T06:25:52.715Z,1.90
2023-02-26T06:28:24.562Z,2.10
2023-02-26T06:30:54.292Z,1.90
2023-02-26T06:33:22.838Z,1.80
2023-02-26T06:35:51.212Z,1.80
2023-02-26T06:38:20.894Z,1.90
2023-02-26T06:40:49.626Z,1.80
2023-02-26T06:43:17.792Z,1.80
2023-02-26T06:45:47.437Z,1.80
2023-02-26T06:48:15.745Z,1.80
2023-02-26T06:50:43.843Z,1.80
2023-02-26T06:53:11.927Z,1.80
2023-02-26T06:55:46.189Z,1.70
2023-02-26T06:58:15.206Z,1.70
2023-02-26T07:00:43.276Z,1.90
2023-02-26T07:03:14.623Z,1.70
2023-02-26T07:05:43.092Z,1.70
2023-02-26T07:08:11.758Z,1.70
2023-02-26T07:10:40.097Z,1.80
2023-02-26T07:13:13.319Z,1.80
2023-02-26T07:15:41.470Z,1.80
2023-02-26T07:18:09.726Z,1.80
2023-02-26T07:20:37.902Z,1.80
2023-02-26T07:23:08.555Z,1.80
2023-02-26T07:25:37.512Z,1.90
2023-02-26T07:28:06.064Z,1.90
2023-02-26T07:30:37.803Z,1.90
2023-02-26T07:33:06.341Z,2.00
2023-02-26T07:35:34.444Z,2.00
2023-02-26T07:38:02.675Z,2.00
2023-02-26T07:40:31.080Z,2.10
2023-02-26T07:43:06.264Z,2.10
2023-02-26T07:45:36.093Z,2.10
2023-02-26T07:48:05.361Z,2.20
2023-02-26T07:50:34.140Z,2.10
2023-02-26T07:53:03.516Z,2.30
2023-02-26T07:55:32.094Z,2.20
2023-02-26T07:58:00.422Z,2.30
2023-02-26T08:00:28.984Z,2.50
2023-02-26T08:02:59.095Z,2.60
2023-02-26T08:05:29.946Z,2.40
2023-02-26T08:07:58.509Z,2.50
2023-02-26T08:10:26.745Z,2.50
2023-02-26T08:12:55.184Z,2.60
2023-02-26T08:15:23.544Z,2.70
2023-02-26T08:18:00.859Z,2.70
2023-02-26T08:20:30.509Z,2.80
2023-02-26T08:22:58.569Z,2.80
2023-02-26T08:25:26.583Z,2.80
2023-02-26T08:27:57.931Z,2.90
2023-02-26T08:30:26.542Z,2.90
2023-02-26T08:32:54.815Z,2.90
2023-02-26T08:35:22.894Z,3.00
2023-02-26T08:37:52.839Z,3.00
2023-02-26T08:40:21.297Z,3.10
2023-02-26T08:42:49.512Z,3.10
2023-02-26T08:45:17.756Z,3.20
2023-02-26T08:47:56.203Z,3.20
2023-02-26T08:50:26.152Z,3.30
2023-02-26T08:52:56.272Z,3.30
2023-02-26T08:55:25.065Z,3.40
2023-02-26T08:57:53.242Z,3.40
2023-02-26T09:00:21.848Z,3.60
2023-02-26T09:02:50.308Z,3.50
2023-02-26T09:05:19.013Z,3.50
2023-02-26T09:07:47.361Z,3.50
2023-02-26T09:10:20.083Z,3.50
2023-02-26T09:12:48.397Z,3.60
2023-02-26T09:15:16.526Z,3.60
2023-02-26T09:17:44.623Z,3.70
2023-02-26T09:20:14.620Z,3.70
2023-02-26T09:22:43.237Z,3.80
2023-02-26T09:25:12.906Z,3.80
2023-02-26T09:27:42.496Z,3.80
2023-02-26T09:30:12.142Z,3.90
2023-02-26T09:32:40.427Z,4.00
2023-02-26T09:35:09.898Z,4.00
2023-02-26T09:37:38.155Z,4.10
2023-02-26T09:40:07.626Z,4.10
2023-02-26T09:42:52.267Z,4.10
2023-02-26T09:45:27.944Z,4.20
2023-02-26T09:47:57.381Z,4.20
2023-02-26T09:50:28.626Z,4.30
2023-02-26T09:53:02.062Z,4.30
2023-02-26T09:55:34.313Z,4.30
2023-02-26T09:58:06.245Z,4.30
2023-02-26T10:00:38.407Z,4.40
2023-02-26T10:03:20.933Z,4.30
2023-02-26T10:06:07.939Z,4.30
2023-02-26T10:08:43.109Z,4.40
2023-02-26T10:11:21.465Z,4.30
2023-02-26T10:13:58.160Z,4.40
2023-02-26T10:16:33.863Z,4.50
2023-02-26T10:19:08.635Z,4.50
2023-02-26T10:21:41.763Z,4.60
2023-02-26T10:24:16.909Z,4.60
2023-02-26T10:26:52.307Z,4.70
2023-02-26T10:29:28.626Z,4.70
2023-02-26T10:32:08.642Z,4.70
2023-02-26T10:34:43.185Z,4.80
2023-02-26T10:37:19.578Z,4.90
2023-02-26T10:39:52.997Z,5.00
2023-02-26T10:42:31.186Z,4.90
2023-02-26T10:45:15.947Z,5.20
2023-02-26T10:47:51.155Z,5.30
2023-02-26T10:50:23.342Z,5.30
2023-02-26T10:52:53.414Z,5.30
2023-02-26T10:55:33.302Z,5.40
2023-02-26T10:58:07.040Z,5.50
2023-02-26T11:00:37.237Z,5.20
2023-02-26T11:03:08.035Z,5.20
2023-02-26T11:05:42.896Z,5.30
2023-02-26T11:08:48.111Z,5.40
2023-02-26T11:11:49.266Z,5.50
2023-02-26T11:17:41.676Z,5.60
2023-02-26T11:20:28.065Z,5.60
2023-02-26T11:23:00.761Z,5.60
2023-02-26T11:25:37.375Z,5.60
2023-02-26T11:28:09.898Z,5.60
2023-02-26T11:30:41.286Z,5.50
2023-02-26T11:33:25.132Z,5.70
2023-02-26T11:35:57.147Z,5.70
2023-02-26T11:38:29.145Z,5.80
2023-02-26T11:41:00.611Z,5.80
2023-02-26T11:43:37.667Z,5.80
2023-02-26T11:46:07.769Z,5.90
2023-02-26T11:49:09.924Z,6.00
2023-02-26T11:51:44.283Z,6.10
2023-02-26T11:54:26.689Z,6.00
2023-02-26T11:57:21.570Z,6.20
2023-02-26T11:59:54.249Z,6.20
2023-02-26T12:02:29.641Z,6.20
2023-02-26T12:05:07.130Z,6.40
2023-02-26T12:07:36.301Z,6.50
2023-02-26T12:10:25.074Z,6.50
2023-02-26T12:13:32.491Z,6.40
2023-02-26T12:16:25.571Z,6.40
2023-02-26T12:19:07.005Z,6.30
2023-02-26T12:22:04.365Z,6.80
2023-02-26T12:25:14.411Z,7.00
2023-02-26T12:28:18.420Z,7.00
2023-02-26T12:31:33.982Z,7.10
2023-02-26T12:35:07.645Z,6.80
2023-02-26T12:38:08.074Z,6.60
2023-02-26T12:44:20.191Z,6.30
2023-02-26T12:47:03.211Z,6.40
2023-02-26T12:50:21.474Z,6.40
2023-02-26T12:57:11.694Z,6.50
2023-02-26T13:00:28.576Z,6.50
2023-02-26T13:03:19.447Z,6.40
2023-02-26T13:06:11.458Z,6.60
2023-02-26T13:09:09.921Z,6.60
2023-02-26T13:11:54.586Z,6.50
2023-02-26T13:14:46.983Z,6.60
2023-02-26T13:17:27.183Z,6.70
2023-02-26T13:20:02.511Z,6.80
2023-02-26T13:22:47.279Z,6.90
2023-02-26T13:25:26.545Z,6.80
2023-02-26T13:28:41.951Z,6.60
2023-02-26T13:34:58.982Z,6.50
2023-02-26T13:37:30.593Z,6.50
2023-02-26T13:40:12.816Z,6.70
2023-02-26T13:42:50.627Z,6.70
2023-02-26T13:45:32.104Z,6.80
2023-02-26T13:48:11.514Z,6.90
2023-02-26T13:50:51.500Z,7.00
2023-02-26T13:53:45.398Z,7.00
2023-02-26T13:56:16.954Z,7.00
2023-02-26T13:58:52.932Z,7.00
2023-02-26T14:01:28.826Z,7.00
2023-02-26T14:04:23.317Z,6.90
2023-02-26T14:06:53.530Z,6.90
2023-02-26T14:09:55.440Z,7.10
2023-02-26T14:12:36.236Z,7.00
2023-02-26T14:15:29.920Z,6.80
2023-02-26T14:18:03.257Z,6.80
2023-02-26T14:20:32.210Z,6.80
2023-02-26T14:23:31.939Z,6.80
2023-02-26T14:26:06.982Z,6.80
2023-02-26T14:28:43.116Z,6.90
2023-02-26T14:31:22.255Z,6.90
2023-02-26T14:34:13.728Z,7.00
2023-02-26T14:36:46.847Z,7.10
2023-02-26T14:39:27.294Z,7.00
2023-02-26T14:42:00.392Z,7.10
2023-02-26T14:44:31.924Z,7.10
2023-02-26T14:47:02.552Z,7.10
2023-02-26T14:49:36.978Z,7.20
2023-02-26T14:52:30.579Z,7.20
2023-02-26T14:55:12.284Z,7.20
2023-02-26T14:57:50.490Z,7.20
2023-02-26T15:00:31.774Z,7.10
2023-02-26T15:03:23.082Z,7.10
2023-02-26T15:06:01.410Z,7.30
2023-02-26T15:08:52.773Z,7.40
2023-02-26T15:11:45.577Z,7.40
2023-02-26T15:14:43.420Z,7.50
2023-02-26T15:17:25.958Z,7.50
2023-02-26T15:20:10.701Z,7.40
2023-02-26T15:22:55.570Z,7.40
2023-02-26T15:25:29.900Z,7.30
2023-02-26T15:27:58.485Z,7.30
2023-02-26T15:30:26.970Z,7.30
2023-02-26T15:33:01.164Z,7.30
2023-02-26T15:35:32.138Z,7.50
2023-02-26T15:38:02.932Z,7.40
2023-02-26T15:40:35.639Z,7.40
2023-02-26T15:43:04.285Z,7.40
2023-02-26T15:45:37.774Z,7.50
2023-02-26T15:48:08.744Z,7.30
2023-02-26T15:50:42.247Z,7.30
2023-02-26T15:53:14.180Z,7.40
2023-02-26T15:55:48.855Z,7.50
2023-02-26T15:58:23.034Z,7.60
2023-02-26T16:00:55.492Z,7.50
2023-02-26T16:03:28.447Z,7.40
2023-02-26T16:05:59.378Z,7.30
2023-02-26T16:08:28.814Z,7.20
2023-02-26T16:10:59.470Z,7.10
2023-02-26T16:13:33.194Z,7.10
2023-02-26T16:16:05.815Z,7.10
2023-02-26T16:18:35.018Z,7.20
2023-02-26T16:21:07.574Z,7.20
2023-02-26T16:23:45.184Z,7.10
2023-02-26T16:26:19.192Z,7.10
2023-02-26T16:28:49.296Z,7.10
2023-02-26T16:31:21.821Z,7.00
2023-02-26T16:33:58.745Z,6.90
2023-02-26T16:36:32.958Z,6.80
2023-02-26T16:39:10.106Z,6.80
2023-02-26T16:41:41.288Z,6.80
2023-02-26T16:44:39.414Z,6.70
2023-02-26T16:47:10.039Z,6.60
2023-02-26T16:49:42.185Z,6.60
2023-02-26T16:52:17.767Z,6.50
2023-02-26T16:54:54.523Z,6.60
2023-02-26T16:57:28.332Z,6.50
2023-02-26T17:00:00.917Z,6.50
2023-02-26T17:02:33.189Z,6.40
2023-02-26T17:05:03.946Z,6.40
2023-02-26T17:07:35.397Z,6.40
2023-02-26T17:10:09.899Z,6.40
2023-02-26T17:12:48.336Z,6.30
2023-02-26T17:15:21.128Z,6.30
2023-02-26T17:17:50.390Z,6.30
2023-02-26T17:20:19.121Z,6.20
2023-02-26T17:22:49.766Z,6.20
2023-02-26T17:25:18.932Z,6.10
2023-02-26T17:27:48.288Z,6.10
2023-02-26T17:30:20.272Z,6.10
2023-02-26T17:32:48.757Z,6.10
2023-02-26T17:35:19.725Z,6.10
2023-02-26T17:37:50.935Z,6.00
2023-02-26T17:40:22.825Z,6.00
2023-02-26T17:42:52.024Z,5.90
2023-02-26T17:45:21.665Z,5.90
2023-02-26T17:47:50.447Z,5.90
2023-02-26T17:50:36.555Z,5.80
2023-02-26T17:53:07.654Z,5.80
2023-02-26T17:55:39.315Z,5.80
2023-02-26T17:58:08.705Z,5.70
2023-02-26T18:00:40.610Z,5.80
2023-02-26T18:03:09.579Z,5.50
2023-02-26T18:05:39.223Z,5.60
2023-02-26T18:08:14.014Z,5.60
2023-02-26T18:10:42.075Z,5.50
2023-02-26T18:13:11.400Z,5.60
2023-02-26T18:15:39.587Z,5.50
2023-02-26T18:18:07.764Z,5.50
2023-02-26T18:20:35.895Z,5.50
2023-02-26T18:23:05.325Z,5.50
2023-02-26T18:25:35.951Z,5.40
2023-02-26T18:28:05.876Z,5.40
2023-02-26T18:30:36.424Z,5.30
2023-02-26T18:33:04.519Z,5.30
2023-02-26T18:35:35.567Z,5.20
2023-02-26T18:38:03.808Z,5.20
2023-02-26T18:40:31.987Z,5.20
2023-02-26T18:43:01.805Z,5.20
2023-02-26T18:45:30.111Z,5.20
2023-02-26T18:47:58.375Z,5.20
2023-02-26T18:50:26.676Z,5.30
2023-02-26T18:52:54.781Z,5.00
2023-02-26T18:55:22.884Z,5.10
2023-02-26T18:57:51.475Z,5.00
2023-02-26T19:00:22.227Z,5.00
2023-02-26T19:02:50.692Z,5.00
2023-02-26T19:05:23.185Z,4.90
2023-02-26T19:07:52.073Z,4.90
2023-02-26T19:10:21.016Z,4.90
2023-02-26T19:12:50.374Z,4.90
2023-02-26T19:15:20.004Z,4.90
2023-02-26T19:17:48.438Z,4.90
2023-02-26T19:20:16.710Z,4.80
2023-02-26T19:22:46.599Z,4.80
2023-02-26T19:25:14.851Z,4.90
2023-02-26T19:27:42.967Z,4.80
2023-02-26T19:30:12.401Z,4.80
2023-02-26T19:32:42.100Z,4.80
2023-02-26T19:35:10.984Z,4.80
2023-02-26T19:37:39.199Z,4.80
2023-02-26T19:40:10.117Z,4.70
2023-02-26T19:42:39.102Z,4.70
2023-02-26T19:45:07.893Z,4.90
2023-02-26T19:47:36.381Z,4.80
2023-02-26T19:50:06.755Z,4.80
2023-02-26T19:52:37.329Z,4.90
2023-02-26T19:55:05.981Z,4.90
2023-02-26T19:57:34.365Z,4.90
2023-02-26T20:00:03.361Z,4.90
2023-02-26T20:02:32.577Z,4.90
2023-02-26T20:05:00.657Z,4.90
2023-02-26T20:07:30.606Z,4.80
2023-02-26T20:10:00.789Z,4.80
2023-02-26T20:12:30.738Z,4.80
2023-02-26T20:14:59.023Z,4.80
2023-02-26T20:17:27.534Z,4.70
2023-02-26T20:19:56.059Z,4.70
2023-02-26T20:22:24.592Z,4.60
2023-02-26T20:24:54.105Z,4.60
2023-02-26T20:27:22.536Z,4.60
2023-02-26T20:29:51.109Z,4.60
2023-02-26T20:32:19.458Z,4.60
2023-02-26T20:34:47.818Z,4.60
2023-02-26T20:37:15.895Z,4.60
2023-02-26T20:39:47.113Z,4.60
2023-02-26T20:42:17.699Z,4.60
2023-02-26T20:44:45.850Z,4.60
2023-02-26T20:47:14.102Z,4.50
2023-02-26T20:49:42.147Z,4.50
2023-02-26T20:52:10.365Z,4.50
2023-02-26T20:54:41.913Z,4.60
2023-02-26T20:57:10.061Z,4.60
2023-02-26T20:59:40.630Z,4.60
2023-02-26T21:02:09.213Z,4.60
2023-02-26T21:04:37.707Z,4.60
2023-02-26T21:07:17.644Z,4.70
2023-02-26T21:09:48.041Z,4.70
2023-02-26T21:12:16.819Z,4.70
2023-02-26T21:14:47.241Z,4.70
2023-02-26T21:17:15.345Z,4.80
2023-02-26T21:19:43.936Z,4.80
2023-02-26T21:22:18.683Z,4.80
2023-02-26T21:24:47.090Z,4.80
2023-02-26T21:27:17.120Z,4.80
2023-02-26T21:29:47.000Z,4.80
2023-02-26T21:32:19.184Z,4.70
2023-02-26T21:34:47.598Z,4.70
2023-02-26T21:37:16.154Z,4.60
2023-02-26T21:39:44.631Z,4.70
2023-02-26T21:42:14.180Z,4.70
2023-02-26T21:44:59.994Z,4.70
2023-02-26T21:47:47.077Z,4.80
2023-02-26T21:50:16.440Z,4.80
2023-02-26T21:52:46.530Z,4.70
2023-02-26T21:55:14.586Z,4.70
2023-02-26T21:57:42.679Z,4.60
2023-02-26T22:00:13.703Z,4.70
2023-02-26T22:02:43.783Z,4.60
2023-02-26T22:05:12.499Z,4.80
2023-02-26T22:07:41.393Z,4.60
2023-02-26T22:10:10.958Z,4.60
2023-02-26T22:12:39.074Z,4.60
2023-02-26T22:15:08.226Z,4.60
2023-02-26T22:17:38.050Z,4.60
2023-02-26T22:20:09.957Z,4.60
2023-02-26T22:22:38.548Z,4.70
2023-02-26T22:25:11.891Z,4.70
2023-02-26T22:27:40.126Z,4.70
2023-02-26T22:30:10.203Z,4.70
2023-02-26T22:32:39.757Z,4.70
2023-02-26T22:35:08.680Z,4.70
2023-02-26T22:37:36.696Z,4.70
2023-02-26T22:40:05.588Z,4.70
2023-02-26T22:42:33.635Z,4.70
2023-02-26T22:45:01.856Z,4.80
2023-02-26T22:47:29.945Z,4.70
2023-02-26T22:50:01.716Z,4.70
2023-02-26T22:52:29.998Z,4.70
2023-02-26T22:54:58.104Z,4.60
2023-02-26T22:57:26.132Z,4.60
2023-02-26T22:59:54.204Z,4.70
2023-02-26T23:02:22.459Z,4.60
2023-02-26T23:04:50.525Z,4.70
2023-02-26T23:07:20.365Z,4.60
2023-02-26T23:09:48.688Z,4.70
2023-02-26T23:12:16.681Z,4.80
2023-02-26T23:14:44.919Z,4.70
2023-02-26T23:17:12.970Z,4.70
2023-02-26T23:19:41.641Z,4.70
2023-02-26T23:22:09.674Z,4.60
2023-02-26T23:24:40.507Z,4.60
2023-02-26T23:27:08.946Z,4.60
2023-02-26T23:29:37.518Z,4.60
2023-02-26T23:32:05.560Z,4.50
2023-02-26T23:34:33.771Z,4.50
2023-02-26T23:37:01.948Z,4.50
2023-02-26T23:39:30.688Z,4.50
2023-02-26T23:42:00.419Z,4.50
2023-02-26T23:44:28.544Z,4.50
2023-02-26T23:46:56.941Z,4.50
2023-02-26T23:49:24.952Z,4.50
2023-02-26T23:51:53.095Z,4.50
2023-02-26T23:54:21.164Z,4.60
2023-02-26T23:56:49.582Z,4.50
2023-02-26T23:59:18.939Z,4.50
